createdAt,value
2023-04-05T00:01:41.708Z,5.10
2023-04-05T00:05:08.822Z,4.80
2023-04-05T00:08:30.355Z,5.30
2023-04-05T00:11:58.513Z,5.10
2023-04-05T00:15:18.753Z,5.30
2023-04-05T00:18:43.556Z,4.80
2023-04-05T00:22:05.799Z,4.40
2023-04-05T00:25:22.821Z,4.40
2023-04-05T00:28:24.631Z,4.50
2023-04-05T00:31:30.785Z,4.30
2023-04-05T00:34:33.852Z,4.30
2023-04-05T00:37:36.334Z,4.30
2023-04-05T00:40:38.454Z,3.50
2023-04-05T00:43:54.902Z,3.20
2023-04-05T00:47:26.486Z,3.20
2023-04-05T00:50:41.535Z,3.60
2023-04-05T00:53:45.080Z,2.90
2023-04-05T00:57:11.169Z,3.30
2023-04-05T01:00:43.753Z,3.20
2023-04-05T01:03:56.190Z,3.00
2023-04-05T01:07:27.528Z,2.60
2023-04-05T01:10:36.524Z,2.70
2023-04-05T01:13:38.719Z,3.30
2023-04-05T01:16:53.286Z,3.30
2023-04-05T01:20:00.666Z,3.40
2023-04-05T01:23:25.175Z,2.90
2023-04-05T01:26:56.849Z,2.80
2023-04-05T01:30:15.465Z,3.30
2023-04-05T01:33:51.857Z,3.50
2023-04-05T01:37:00.825Z,3.30
2023-04-05T01:40:06.348Z,3.50
2023-04-05T01:43:46.942Z,3.40
2023-04-05T01:47:01.589Z,3.10
2023-04-05T01:50:03.961Z,3.60
2023-04-05T01:53:44.958Z,3.40
2023-04-05T01:56:58.930Z,3.10
2023-04-05T02:00:13.367Z,3.90
2023-04-05T02:03:17.970Z,3.80
2023-04-05T02:07:03.481Z,3.00
2023-04-05T02:10:13.620Z,2.70
2023-04-05T02:13:18.775Z,3.10
2023-04-05T02:16:33.532Z,3.30
2023-04-05T02:20:02.338Z,3.40
2023-04-05T02:23:30.132Z,2.80
2023-04-05T02:26:45.240Z,3.00
2023-04-05T02:29:57.338Z,3.00
2023-04-05T02:33:29.472Z,3.00
2023-04-05T02:36:41.936Z,3.50
2023-04-05T02:40:15.764Z,3.00
2023-04-05T02:43:30.966Z,2.70
2023-04-05T02:46:33.024Z,2.90
2023-04-05T02:49:38.078Z,3.30
2023-04-05T02:52:46.792Z,2.60
2023-04-05T02:56:37.925Z,3.10
2023-04-05T03:00:25.762Z,2.70
2023-04-05T03:03:40.826Z,2.70
2023-04-05T03:06:46.481Z,2.60
2023-04-05T03:09:50.724Z,2.50
2023-04-05T03:13:13.902Z,2.60
2023-04-05T03:16:38.196Z,2.60
2023-04-05T03:19:53.021Z,2.20
2023-04-05T03:23:18.241Z,2.30
2023-04-05T03:26:31.632Z,2.50
2023-04-05T03:29:55.367Z,2.60
2023-04-05T03:32:57.743Z,2.40
2023-04-05T03:36:42.711Z,3.00
2023-04-05T03:39:55.323Z,2.50
2023-04-05T03:43:20.459Z,2.40
2023-04-05T03:46:27.026Z,2.40
2023-04-05T03:49:48.591Z,2.50
2023-04-05T03:53:31.755Z,2.80
2023-04-05T03:56:37.876Z,2.80
2023-04-05T04:00:01.303Z,3.20
2023-04-05T04:03:17.195Z,2.60
2023-04-05T04:06:43.362Z,2.90
2023-04-05T04:09:45.591Z,2.90
2023-04-05T04:12:50.520Z,2.80
2023-04-05T04:15:53.272Z,3.10
2023-04-05T04:19:12.689Z,2.60
2023-04-05T04:22:52.111Z,2.60
2023-04-05T04:26:43.060Z,2.40
2023-04-05T04:33:27.124Z,3.00
2023-04-05T04:36:54.207Z,2.10
2023-04-05T04:39:56.040Z,2.80
2023-04-05T04:43:38.662Z,2.90
2023-04-05T04:47:04.495Z,2.30
2023-04-05T04:50:21.504Z,2.20
2023-04-05T04:53:51.017Z,2.50
2023-04-05T04:56:53.007Z,3.20
2023-04-05T04:59:55.057Z,3.20
2023-04-05T05:02:59.899Z,2.70
2023-04-05T05:06:23.359Z,3.00
2023-04-05T05:09:54.820Z,3.00
2023-04-05T05:12:59.967Z,2.60
2023-04-05T05:16:04.469Z,2.30
2023-04-05T05:19:06.433Z,2.60
2023-04-05T05:22:27.131Z,2.60
2023-04-05T05:25:30.029Z,2.30
2023-04-05T05:28:54.282Z,2.60
2023-04-05T05:31:57.300Z,2.40
2023-04-05T05:35:01.911Z,2.40
2023-04-05T05:38:03.761Z,2.70
2023-04-05T05:41:06.095Z,2.90
2023-04-05T05:44:28.749Z,2.40
2023-04-05T05:47:30.910Z,2.30
2023-04-05T05:50:48.800Z,2.20
2023-04-05T05:53:53.014Z,2.30
2023-04-05T05:57:22.732Z,2.50
2023-04-05T06:03:55.734Z,2.60
2023-04-05T06:07:01.831Z,1.90
2023-04-05T06:10:11.632Z,2.50
2023-04-05T06:13:13.613Z,2.60
2023-04-05T06:16:43.158Z,2.70
2023-04-05T06:19:58.304Z,3.10
2023-04-05T06:23:03.739Z,2.90
2023-04-05T06:26:05.494Z,3.10
2023-04-05T06:29:07.323Z,2.50
2023-04-05T06:32:09.262Z,2.90
2023-04-05T06:38:28.621Z,2.50
2023-04-05T06:41:38.048Z,2.70
2023-04-05T06:44:40.134Z,2.80
2023-04-05T06:47:44.875Z,2.90
2023-04-05T06:50:47.133Z,3.00
2023-04-05T06:53:49.302Z,2.70
2023-04-05T06:56:57.431Z,2.70
2023-04-05T07:00:08.025Z,3.10
2023-04-05T07:03:10.002Z,2.40
2023-04-05T07:06:14.585Z,2.60
2023-04-05T07:12:22.722Z,2.30
2023-04-05T07:16:02.004Z,3.10
2023-04-05T07:19:09.521Z,2.50
2023-04-05T07:22:11.419Z,2.70
2023-04-05T07:25:23.589Z,3.10
2023-04-05T07:28:44.747Z,2.70
2023-04-05T07:32:01.727Z,2.80
2023-04-05T07:35:13.048Z,3.00
2023-04-05T07:38:22.665Z,2.70
2023-04-05T07:41:31.719Z,2.60
2023-04-05T07:44:33.596Z,2.70
2023-04-05T07:48:05.939Z,2.30
2023-04-05T07:51:28.219Z,3.10
2023-04-05T07:54:33.472Z,2.90
2023-04-05T07:57:38.543Z,3.10
2023-04-05T08:00:43.336Z,2.30
2023-04-05T08:03:53.062Z,2.80
2023-04-05T08:07:07.855Z,2.80
2023-04-05T08:10:19.025Z,2.90
2023-04-05T08:13:58.813Z,2.90
2023-04-05T08:17:19.317Z,3.00
2023-04-05T08:20:41.733Z,3.30
2023-04-05T08:24:04.166Z,3.20
2023-04-05T08:27:36.675Z,2.80
2023-04-05T08:31:07.844Z,3.80
2023-04-05T08:34:12.755Z,2.40
2023-04-05T08:37:14.571Z,3.00
2023-04-05T08:40:34.094Z,3.00
2023-04-05T08:44:21.954Z,2.90
2023-04-05T08:47:54.355Z,3.20
2023-04-05T08:51:09.269Z,3.50
2023-04-05T08:54:14.953Z,3.60
2023-04-05T08:57:16.925Z,3.20
2023-04-05T09:00:32.372Z,4.30
2023-04-05T09:03:46.605Z,3.10
2023-04-05T09:07:09.981Z,4.00
2023-04-05T09:10:14.836Z,3.50
2023-04-05T09:13:36.896Z,3.70
2023-04-05T09:16:42.618Z,3.30
2023-04-05T09:19:50.206Z,3.60
2023-04-05T09:22:52.218Z,3.70
2023-04-05T09:25:54.389Z,3.40
2023-04-05T09:28:56.355Z,4.30
2023-04-05T09:32:10.234Z,3.50
2023-04-05T09:35:32.811Z,3.10
2023-04-05T09:38:53.713Z,3.80
2023-04-05T09:42:16.175Z,3.50
2023-04-05T09:45:45.523Z,3.80
2023-04-05T09:49:24.670Z,4.60
2023-04-05T09:52:39.474Z,3.60
2023-04-05T09:55:43.037Z,3.90
2023-04-05T09:58:51.729Z,3.50
2023-04-05T10:01:53.784Z,4.00
2023-04-05T10:05:16.323Z,4.40
2023-04-05T10:08:20.864Z,3.50
2023-04-05T10:11:46.116Z,4.10
2023-04-05T10:15:00.632Z,4.20
2023-04-05T10:18:11.290Z,4.00
2023-04-05T10:21:15.869Z,4.70
2023-04-05T10:25:07.192Z,4.30
2023-04-05T10:28:22.541Z,4.20
2023-04-05T10:31:58.198Z,4.50
2023-04-05T10:35:16.002Z,4.20
2023-04-05T10:38:28.460Z,4.10
2023-04-05T10:41:40.084Z,5.50
2023-04-05T10:44:43.982Z,4.80
2023-04-05T10:48:33.616Z,4.50
2023-04-05T10:51:45.367Z,4.40
2023-04-05T10:54:50.691Z,4.70
2023-04-05T10:57:54.409Z,4.30
2023-04-05T11:01:04.644Z,5.30
2023-04-05T11:04:15.233Z,4.70
2023-04-05T11:07:27.225Z,5.50
2023-04-05T11:10:32.595Z,4.70
2023-04-05T11:13:54.905Z,4.80
2023-04-05T11:17:00.191Z,5.00
2023-04-05T11:20:05.900Z,5.60
2023-04-05T11:23:07.684Z,5.30
2023-04-05T11:26:09.562Z,5.00
2023-04-05T11:29:21.126Z,5.70
2023-04-05T11:32:23.819Z,5.20
2023-04-05T11:35:25.843Z,5.30
2023-04-05T11:38:33.154Z,5.20
2023-04-05T11:41:35.018Z,5.00
2023-04-05T11:44:43.999Z,5.00
2023-04-05T11:47:48.636Z,5.50
2023-04-05T11:50:56.646Z,5.10
2023-04-05T11:54:19.054Z,4.70
2023-04-05T11:57:29.071Z,6.10
2023-04-05T12:00:33.813Z,5.50
2023-04-05T12:03:37.569Z,5.40
2023-04-05T12:06:39.473Z,5.20
2023-04-05T12:10:21.263Z,5.50
2023-04-05T12:13:33.347Z,5.40
2023-04-05T12:16:35.120Z,5.80
2023-04-05T12:19:40.562Z,5.80
2023-04-05T12:22:44.145Z,5.70
2023-04-05T12:25:47.844Z,5.90
2023-04-05T12:32:04.713Z,5.00
2023-04-05T12:35:10.992Z,5.20
2023-04-05T12:38:17.875Z,5.00
2023-04-05T12:41:27.829Z,5.60
2023-04-05T12:47:36.098Z,5.10
2023-04-05T12:50:43.157Z,6.10
2023-04-05T12:53:47.291Z,6.00
2023-04-05T12:56:54.892Z,5.10
2023-04-05T12:59:56.690Z,6.60
2023-04-05T13:02:59.522Z,7.10
2023-04-05T13:06:01.542Z,4.60
2023-04-05T13:09:03.974Z,5.80
2023-04-05T13:12:06.549Z,6.30
2023-04-05T13:15:11.797Z,6.50
2023-04-05T13:18:15.064Z,6.10
2023-04-05T13:21:16.875Z,5.40
2023-04-05T13:24:18.517Z,6.10
2023-04-05T13:27:21.926Z,5.30
2023-04-05T13:30:35.263Z,6.20
2023-04-05T13:33:37.127Z,5.50
2023-04-05T13:36:38.893Z,6.40
2023-04-05T13:39:40.797Z,6.00
2023-04-05T13:42:44.935Z,5.70
2023-04-05T13:45:46.534Z,6.30
2023-04-05T13:48:48.294Z,5.40
2023-04-05T13:51:50.226Z,5.60
2023-04-05T13:55:02.910Z,6.90
2023-04-05T13:58:06.319Z,6.60
2023-04-05T14:01:08.044Z,6.00
2023-04-05T14:04:10.323Z,6.70
2023-04-05T14:07:12.045Z,7.10
2023-04-05T14:10:13.705Z,5.10
2023-04-05T14:13:18.787Z,7.00
2023-04-05T14:16:20.620Z,7.00
2023-04-05T14:19:24.879Z,6.90
2023-04-05T14:22:26.747Z,5.30
2023-04-05T14:25:36.590Z,6.00
2023-04-05T14:28:38.869Z,7.30
2023-04-05T14:31:44.410Z,6.90
2023-04-05T14:34:46.154Z,5.90
2023-04-05T14:37:50.778Z,6.30
2023-04-05T14:40:52.842Z,6.00
2023-04-05T14:43:55.125Z,6.20
2023-04-05T14:46:57.093Z,8.30
2023-04-05T14:50:12.295Z,6.70
2023-04-05T14:53:30.996Z,6.10
2023-04-05T14:56:33.593Z,6.10
2023-04-05T14:59:35.848Z,6.00
2023-04-05T15:02:38.269Z,6.90
2023-04-05T15:05:42.831Z,6.40
2023-04-05T15:08:44.564Z,7.70
2023-04-05T15:11:46.530Z,5.90
2023-04-05T15:14:53.214Z,6.20
2023-04-05T15:18:03.011Z,5.50
2023-04-05T15:21:05.944Z,7.10
2023-04-05T15:24:08.547Z,7.40
2023-04-05T15:27:11.535Z,7.00
2023-04-05T15:30:14.110Z,6.70
2023-04-05T15:33:17.118Z,7.30
2023-04-05T15:36:19.011Z,6.60
2023-04-05T15:39:21.074Z,7.20
2023-04-05T15:42:23.186Z,7.00
2023-04-05T15:45:24.875Z,6.30
2023-04-05T15:48:32.410Z,6.30
2023-04-05T15:51:35.531Z,6.90
2023-04-05T15:54:37.571Z,6.60
2023-04-05T15:58:03.815Z,5.90
2023-04-05T16:01:06.039Z,7.10
2023-04-05T16:04:09.162Z,6.70
2023-04-05T16:07:11.008Z,7.70
2023-04-05T16:10:12.935Z,5.60
2023-04-05T16:13:14.889Z,6.60
2023-04-05T16:16:29.912Z,6.50
2023-04-05T16:19:37.036Z,7.90
2023-04-05T16:22:38.842Z,5.80
2023-04-05T16:25:40.568Z,6.70
2023-04-05T16:28:42.688Z,6.90
2023-04-05T16:31:47.561Z,6.60
2023-04-05T16:34:49.692Z,6.00
2023-04-05T16:37:51.386Z,6.10
2023-04-05T16:40:53.224Z,5.30
2023-04-05T16:43:58.124Z,4.60
2023-04-05T16:46:59.872Z,4.50
2023-04-05T16:50:05.091Z,4.50
2023-04-05T16:53:15.454Z,4.20
2023-04-05T16:56:17.422Z,4.10
2023-04-05T16:59:19.298Z,3.90
2023-04-05T17:02:21.464Z,3.10
2023-04-05T17:05:23.466Z,3.70
2023-04-05T17:08:31.408Z,3.50
2023-04-05T17:11:33.417Z,3.40
2023-04-05T17:14:42.738Z,4.00
2023-04-05T17:17:44.667Z,4.50
2023-04-05T17:20:46.862Z,5.50
2023-04-05T17:23:49.033Z,5.00
2023-04-05T17:26:50.736Z,7.80
2023-04-05T17:30:01.187Z,5.90
2023-04-05T17:33:11.909Z,4.40
2023-04-05T17:36:13.733Z,4.80
2023-04-05T17:39:16.185Z,4.20
2023-04-05T17:42:18.732Z,3.20
2023-04-05T17:45:59.719Z,4.70
2023-04-05T17:49:09.138Z,4.40
2023-04-05T17:52:13.263Z,4.40
2023-04-05T17:55:15.044Z,4.10
2023-04-05T17:58:16.853Z,2.90
2023-04-05T18:01:18.890Z,2.90
2023-04-05T18:04:27.230Z,2.80
2023-04-05T18:07:28.958Z,3.10
2023-04-05T18:10:36.352Z,2.80
2023-04-05T18:13:38.199Z,3.60
2023-04-05T18:16:40.761Z,3.50
2023-04-05T18:19:42.583Z,3.70
2023-04-05T18:22:47.286Z,2.70
2023-04-05T18:25:49.607Z,3.40
2023-04-05T18:28:55.161Z,3.30
2023-04-05T18:32:08.701Z,3.60
2023-04-05T18:35:13.192Z,3.20
2023-04-05T18:38:17.461Z,3.00
2023-04-05T18:41:19.314Z,3.00
2023-04-05T18:44:21.441Z,3.50
2023-04-05T18:47:23.492Z,3.00
2023-04-05T18:50:47.904Z,3.20
2023-04-05T18:53:53.207Z,3.00
2023-04-05T18:56:55.155Z,3.10
2023-04-05T18:59:57.329Z,2.90
2023-04-05T19:03:04.999Z,3.00
2023-04-05T19:06:07.128Z,2.60
2023-04-05T19:09:20.277Z,3.20
2023-04-05T19:12:24.276Z,3.40
2023-04-05T19:15:26.279Z,2.80
2023-04-05T19:18:29.812Z,3.70
2023-04-05T19:21:32.375Z,4.30
2023-04-05T19:24:39.628Z,3.30
2023-04-05T19:27:47.102Z,4.10
2023-04-05T19:33:54.730Z,4.20
2023-04-05T19:37:00.909Z,3.80
2023-04-05T19:40:07.223Z,3.30
2023-04-05T19:43:12.628Z,4.00
2023-04-05T19:46:19.686Z,3.50
2023-04-05T19:49:29.701Z,3.60
2023-04-05T19:52:51.676Z,3.60
2023-04-05T19:55:56.783Z,3.20
2023-04-05T19:59:38.028Z,4.00
2023-04-05T20:03:07.587Z,4.00
2023-04-05T20:06:34.946Z,3.30
2023-04-05T20:10:24.972Z,3.10
2023-04-05T20:13:27.287Z,3.50
2023-04-05T20:16:44.526Z,3.50
2023-04-05T20:20:08.142Z,3.80
2023-04-05T20:23:10.491Z,3.90
2023-04-05T20:26:27.151Z,3.60
2023-04-05T20:29:49.261Z,3.80
2023-04-05T20:32:54.298Z,3.80
2023-04-05T20:36:10.993Z,4.00
2023-04-05T20:39:27.161Z,3.60
2023-04-05T20:42:52.186Z,3.30
2023-04-05T20:45:55.013Z,3.00
2023-04-05T20:48:58.188Z,3.20
2023-04-05T20:52:11.079Z,3.40
2023-04-05T20:55:15.731Z,4.40
2023-04-05T20:58:17.702Z,3.30
2023-04-05T21:01:32.696Z,3.40
2023-04-05T21:04:37.294Z,3.30
2023-04-05T21:08:16.389Z,3.30
2023-04-05T21:11:27.737Z,3.00
2023-04-05T21:14:29.589Z,3.20
2023-04-05T21:17:31.878Z,3.40
2023-04-05T21:21:03.308Z,3.60
2023-04-05T21:24:08.438Z,3.70
2023-04-05T21:27:30.815Z,3.10
2023-04-05T21:30:33.100Z,3.80
2023-04-05T21:33:46.332Z,3.40
2023-04-05T21:36:51.156Z,3.40
2023-04-05T21:40:05.672Z,3.10
2023-04-05T21:43:16.684Z,2.90
2023-04-05T21:46:21.533Z,3.10
2023-04-05T21:49:53.827Z,3.60
2023-04-05T21:52:55.750Z,3.70
2023-04-05T21:55:57.999Z,3.20
2023-04-05T21:59:26.043Z,3.50
2023-04-05T22:02:32.668Z,2.90
2023-04-05T22:05:38.862Z,3.20
2023-04-05T22:08:47.029Z,3.20
2023-04-05T22:11:58.893Z,3.40
2023-04-05T22:15:21.308Z,3.30
2023-04-05T22:18:33.188Z,3.10
2023-04-05T22:21:57.999Z,4.70
2023-04-05T22:25:09.866Z,3.60
2023-04-05T22:28:41.023Z,3.50
2023-04-05T22:31:43.134Z,3.20
2023-04-05T22:35:25.695Z,3.30
2023-04-05T22:39:18.300Z,3.30
2023-04-05T22:42:25.651Z,4.40
2023-04-05T22:45:55.634Z,4.30
2023-04-05T22:49:05.772Z,3.90
2023-04-05T22:52:21.220Z,4.50
2023-04-05T22:56:08.270Z,4.10
2023-04-05T23:00:20.348Z,3.40
2023-04-05T23:03:25.556Z,3.80
2023-04-05T23:07:30.874Z,3.90
2023-04-05T23:11:10.687Z,4.20
2023-04-05T23:14:24.661Z,4.00
2023-04-05T23:17:50.370Z,3.60
2023-04-05T23:21:21.623Z,3.80
2023-04-05T23:27:49.410Z,4.10
2023-04-05T23:31:09.900Z,4.20
2023-04-05T23:34:14.332Z,3.90
2023-04-05T23:37:31.868Z,4.60
2023-04-05T23:40:44.086Z,5.10
2023-04-05T23:44:19.490Z,4.90
2023-04-05T23:47:21.883Z,3.50
2023-04-05T23:50:43.985Z,3.50
2023-04-05T23:53:52.720Z,4.00
2023-04-05T23:56:55.103Z,3.60
